.
WxDataArchive / Data Records for 2010-06-12
2010-06-11 June 2010 2010-06-13

Data Records for Saturday, 12 June 2010

Time	Temp	Chill	HIndex	Humid	Dewpt	 Wind 	HiWind	WindDir	Rain 	Barom 
-----	----	-----	------	-----	-----	------	------	-------	-----	----- 
00:00	72.3	72.3	72.3	93	70.2	0	1	0	0.00	29.978 
00:05	72.3	72.3	72.3	93	70.2	0	1	0	0.00	29.978 
00:10	72.5	72.5	72.5	93	70.4	0	1	0	0.00	29.978 
00:15	72.5	72.5	72.5	93	70.4	0	1	0	0.00	29.965 
00:20	72.7	72.7	72.7	93	70.6	0	1	0	0.00	29.965 
00:25	72.7	72.7	72.7	93	70.6	0	1	0	0.00	29.965 
00:30	72.7	72.7	72.7	93	70.6	0	1	0	0.00	29.962 
00:35	72.8	72.8	72.8	93	70.7	0	1	338	0.00	29.962 
00:40	72.8	72.8	72.8	92	70.3	0	2	225	0.00	29.962 
00:45	73.0	73.0	73.0	92	70.5	0	2	225	0.00	29.961 
00:50	73.0	73.0	73.0	92	70.5	0	1	225	0.00	29.961 
00:55	73.0	73.0	73.0	92	70.5	0	1	225	0.00	29.961 
01:00	73.0	73.0	73.0	92	70.5	0	2	248	0.00	29.958 
01:05	73.2	73.2	73.2	91	70.4	0	2	248	0.00	29.958 
01:10	73.2	73.2	73.2	91	70.4	0	2	248	0.00	29.958 
01:15	73.3	73.3	73.3	91	70.5	0	4	248	0.00	29.946 
01:20	73.5	73.5	73.5	90	70.4	0	3	248	0.00	29.946 
01:25	73.5	73.5	73.5	90	70.4	0	2	248	0.00	29.946 
01:30	73.5	73.5	73.5	90	70.4	0	3	270	0.00	29.940 
01:35	73.5	73.5	73.5	89	70.0	0	2	248	0.00	29.940 
01:40	73.5	73.5	73.5	89	70.0	0	1	248	0.00	29.940 
01:45	73.5	73.5	73.5	89	70.0	0	2	270	0.00	29.937 
01:50	73.5	73.5	73.5	89	70.0	1	3	292	0.00	29.937 
01:55	73.5	73.5	73.5	89	70.0	0	2	292	0.00	29.937 
02:00	73.5	73.5	73.5	88	69.7	0	2	248	0.00	29.940 
02:05	73.5	73.5	73.5	88	69.7	0	3	270	0.00	29.940 
02:10	73.3	73.3	73.3	88	69.5	0	2	248	0.00	29.940 
02:15	73.3	73.3	73.3	87	69.2	1	3	248	0.00	29.935 
02:20	73.3	73.3	73.3	87	69.2	0	2	315	0.00	29.935 
02:25	73.3	73.3	73.3	86	68.8	1	3	248	0.00	29.935 
02:30	73.3	73.3	73.3	86	68.8	1	3	248	0.00	29.931 
02:35	73.3	73.3	73.3	86	68.8	0	2	248	0.00	29.931 
02:40	73.2	73.2	73.2	86	68.7	0	2	270	0.00	29.931 
02:45	73.2	73.2	73.2	86	68.7	1	3	315	0.00	29.926 
02:50	73.2	73.2	73.2	86	68.7	1	3	315	0.00	29.926 
02:55	73.0	73.0	73.0	86	68.6	1	3	225	0.00	29.926 
03:00	73.0	73.0	73.0	86	68.6	1	3	270	0.00	29.926 
03:05	73.0	73.0	73.0	86	68.6	0	2	270	0.00	29.926 
03:10	72.8	72.8	72.8	86	68.4	0	1	270	0.00	29.926 
03:15	72.7	72.7	72.7	86	68.3	0	4	270	0.00	29.929 
03:20	72.7	72.7	72.7	87	68.6	0	2	270	0.00	29.929 
03:25	72.7	72.7	72.7	87	68.6	0	2	270	0.00	29.929 
03:30	72.5	72.5	72.5	87	68.4	0	1	270	0.00	29.932 
03:35	72.5	72.5	72.5	88	68.7	0	1	270	0.00	29.932 
03:40	72.5	72.5	72.5	88	68.7	0	1	270	0.00	29.932 
03:45	72.3	72.3	72.3	88	68.5	0	1	270	0.00	29.928 
03:50	72.5	72.5	72.5	88	68.7	0	3	270	0.00	29.928 
03:55	72.3	72.3	72.3	88	68.5	0	1	248	0.00	29.928 
04:00	72.3	72.3	72.3	88	68.5	0	2	248	0.00	29.927 
04:05	72.3	72.3	72.3	88	68.5	0	1	248	0.00	29.927 
04:10	72.1	72.1	72.1	88	68.3	0	1	248	0.00	29.927 
04:15	72.1	72.1	72.1	88	68.3	0	1	248	0.00	29.931 
04:20	72.0	72.0	72.0	88	68.2	0	0	---	0.00	29.931 
04:25	71.8	71.8	71.8	88	68.0	0	1	248	0.00	29.931 
04:30	71.8	71.8	71.8	89	68.4	0	1	248	0.00	29.930 
04:35	71.8	71.8	71.8	89	68.4	0	1	248	0.00	29.930 
04:40	71.8	71.8	71.8	89	68.4	0	3	248	0.00	29.930 
04:45	71.6	71.6	71.6	89	68.2	0	3	248	0.00	29.926 
04:50	71.6	71.6	71.6	89	68.2	0	2	248	0.00	29.926 
04:55	71.6	71.6	71.6	90	68.5	0	1	248	0.00	29.926 
05:00	71.5	71.5	71.5	90	68.4	0	1	248	0.00	29.930 
05:05	71.3	71.3	71.3	90	68.2	0	0	---	0.00	29.930 
05:10	71.3	71.3	71.3	90	68.2	0	0	---	0.00	29.930 
05:15	71.1	71.1	71.1	90	68.0	0	0	---	0.00	29.931 
05:20	70.9	70.9	70.9	91	68.1	0	0	---	0.00	29.931 
05:25	70.9	70.9	70.9	91	68.1	0	0	---	0.00	29.931 
05:30	70.8	70.8	70.8	91	68.0	0	1	248	0.00	29.931 
05:35	70.8	70.8	70.8	92	68.4	0	0	---	0.00	29.931 
05:40	70.8	70.8	70.8	92	68.4	0	0	---	0.00	29.931 
05:45	70.6	70.6	70.6	92	68.2	0	0	---	0.00	29.929 
05:50	70.6	70.6	70.6	92	68.2	0	0	---	0.00	29.929 
05:55	70.6	70.6	70.6	92	68.2	0	0	---	0.00	29.929 
06:00	70.6	70.6	70.6	92	68.2	0	0	---	0.00	29.928 
06:05	70.6	70.6	70.6	93	68.5	0	0	---	0.00	29.928 
06:10	70.8	70.8	70.8	93	68.7	0	1	248	0.00	29.928 
06:15	70.8	70.8	70.8	93	68.7	0	0	---	0.00	29.933 
06:20	71.1	71.1	71.1	93	69.0	0	1	248	0.00	29.933 
06:25	71.3	71.3	71.3	93	69.2	0	1	248	0.00	29.933 
06:30	71.5	71.5	71.5	93	69.4	0	1	248	0.00	29.943 
06:35	71.6	71.6	71.6	93	69.5	0	1	248	0.00	29.943 
06:40	71.8	71.8	71.8	93	69.7	0	2	248	0.00	29.943 
06:45	72.0	72.0	72.0	93	69.9	0	2	248	0.00	29.945 
06:50	72.1	72.1	72.1	93	70.0	0	2	225	0.00	29.945 
06:55	72.1	72.1	72.1	93	70.0	0	1	225	0.00	29.945 
07:00	72.3	72.3	72.3	93	70.2	0	2	225	0.00	29.945 
07:05	72.5	72.5	72.5	92	70.0	0	1	225	0.00	29.945 
07:10	72.5	72.5	72.5	92	70.0	0	1	225	0.00	29.945 
07:15	72.7	72.7	72.7	92	70.2	0	1	225	0.00	29.946 
07:20	72.8	72.8	72.8	92	70.3	0	1	225	0.00	29.946 
07:25	72.8	72.8	72.8	92	70.3	0	1	270	0.00	29.946 
07:30	72.8	72.8	72.8	92	70.3	1	3	270	0.00	29.948 
07:35	73.0	73.0	73.0	92	70.5	1	3	270	0.00	29.948 
07:40	73.0	73.0	73.0	91	70.2	0	1	270	0.00	29.948 
07:45	73.2	73.2	73.2	91	70.4	0	1	270	0.00	29.952 
07:50	73.2	73.2	73.2	91	70.4	0	2	270	0.00	29.952 
07:55	73.2	73.2	73.2	91	70.4	0	1	270	0.00	29.952 
08:00	73.3	73.3	73.3	91	70.5	1	2	270	0.00	29.953 
08:05	73.5	73.5	73.5	91	70.7	0	1	270	0.00	29.953 
08:10	73.7	73.7	73.7	91	70.9	0	1	270	0.00	29.953 
08:15	73.7	73.7	73.7	91	70.9	0	1	270	0.00	29.949 
08:20	73.9	73.9	73.9	90	70.8	0	2	270	0.00	29.949 
08:25	73.9	73.9	73.9	90	70.8	0	2	270	0.00	29.949 
08:30	73.9	73.9	73.9	90	70.8	0	0	---	0.00	29.952 
08:35	73.9	73.9	73.9	90	70.8	0	1	270	0.00	29.952 
08:40	74.0	74.0	74.0	90	70.9	0	1	270	0.00	29.952 
08:45	74.2	74.2	74.2	90	71.1	0	2	270	0.00	29.953 
08:50	74.4	74.4	74.4	90	71.3	0	1	270	0.00	29.953 
08:55	74.6	74.6	74.6	90	71.5	0	2	270	0.00	29.953 
09:00	74.9	74.9	74.9	90	71.8	0	1	270	0.00	29.958 
09:05	75.3	75.3	74.8	89	71.8	0	2	270	0.00	29.958 
09:10	76.0	76.0	76.3	88	72.2	0	2	270	0.00	29.958 
09:15	76.5	76.5	77.3	87	72.3	0	2	270	0.00	29.958 
09:20	76.8	76.8	78.0	86	72.3	0	1	270	0.00	29.958 
09:25	76.8	76.8	78.0	85	71.9	1	3	270	0.00	29.958 
09:30	76.7	76.7	77.8	85	71.8	1	3	270	0.00	29.961 
09:35	76.5	76.5	77.5	85	71.6	1	3	270	0.00	29.961 
09:40	76.3	76.3	77.1	85	71.4	0	1	270	0.00	29.961 
09:45	76.3	76.3	77.0	86	71.8	0	2	270	0.00	29.969 
09:50	76.1	76.1	76.6	86	71.6	1	4	270	0.00	29.969 
09:55	76.1	76.1	76.6	87	71.9	0	2	270	0.00	29.969 
10:00	76.3	76.3	76.9	87	72.1	0	2	270	0.00	29.962 
10:05	76.5	76.5	77.4	86	72.0	0	2	270	0.00	29.962 
10:10	76.5	76.5	77.4	86	72.0	0	2	270	0.00	29.962 
10:15	76.5	76.5	77.4	86	72.0	1	3	315	0.00	29.954 
10:20	77.0	77.0	78.4	86	72.5	1	3	315	0.00	29.954 
10:25	77.7	77.7	79.8	85	72.8	1	3	315	0.00	29.954 
10:30	78.3	78.3	81.0	84	73.1	1	2	315	0.00	29.945 
10:35	78.6	78.6	81.6	83	73.0	1	3	292	0.00	29.945 
10:40	78.8	78.8	81.9	81	72.5	1	3	270	0.00	29.945 
10:45	79.2	79.2	82.7	81	72.8	1	3	270	0.00	29.946 
10:50	79.2	79.2	82.6	80	72.5	1	4	292	0.00	29.946 
10:55	78.8	78.8	81.8	80	72.1	2	4	292	0.00	29.946 
11:00	78.6	78.6	81.5	81	72.3	1	3	315	0.00	29.951 
11:05	78.5	78.5	81.3	82	72.5	1	3	315	0.00	29.951 
11:10	79.0	79.0	82.4	83	73.4	0	2	112	0.00	29.951 
11:15	79.6	79.6	83.4	80	72.9	1	3	315	0.00	29.953 
11:20	79.9	79.9	84.0	80	73.2	2	4	292	0.00	29.953 
11:25	80.1	80.1	84.3	79	73.0	1	3	292	0.00	29.953 
11:30	79.9	79.9	83.9	79	72.8	1	4	292	0.00	29.957 
11:35	79.4	79.4	82.9	79	72.3	2	4	292	0.00	29.957 
11:40	79.2	79.2	82.6	80	72.5	2	3	292	0.00	29.957 
11:45	79.2	79.2	82.7	81	72.8	2	3	292	0.00	29.960 
11:50	79.4	79.4	83.1	81	73.0	1	4	292	0.00	29.960 
11:55	79.4	79.4	83.0	80	72.7	1	3	292	0.00	29.960 
12:00	79.8	79.8	83.9	81	73.4	1	3	292	0.00	29.959 
12:05	80.3	80.3	85.0	81	73.9	2	3	292	0.00	29.959 
12:10	80.9	80.9	86.0	79	73.8	2	4	292	0.00	29.959 
12:15	81.2	81.2	86.3	77	73.3	2	5	270	0.00	29.956 
12:20	81.6	81.6	87.2	77	73.7	2	4	315	0.00	29.956 
12:25	81.6	81.6	87.2	77	73.7	2	4	292	0.00	29.956 
12:30	81.8	81.8	87.6	77	73.9	1	3	315	0.00	29.959 
12:35	82.0	82.0	88.0	77	74.1	1	3	248	0.00	29.959 
12:40	81.8	81.8	87.6	77	73.9	1	3	270	0.00	29.959 
12:45	81.6	81.6	87.2	77	73.7	2	3	270	0.00	29.966 
12:50	82.0	82.0	88.0	77	74.1	2	4	270	0.00	29.966 
12:55	81.8	81.8	87.4	76	73.5	2	4	270	0.00	29.966 
13:00	82.0	82.0	88.3	78	74.4	2	4	270	0.00	29.971 
13:05	82.8	82.8	89.6	76	74.4	2	4	270	0.00	29.971 
13:10	83.0	83.0	89.5	74	73.8	2	5	270	0.00	29.971 
13:15	82.6	82.6	88.6	74	73.4	2	4	292	0.00	29.970 
13:20	82.4	82.4	88.4	75	73.7	2	5	292	0.00	29.970 
13:25	82.4	82.4	88.7	76	74.1	2	5	270	0.00	29.970 
13:30	82.6	82.6	89.4	77	74.6	1	6	270	0.00	29.967 
13:35	83.2	83.2	90.3	75	74.4	2	3	292	0.00	29.967 
13:40	83.8	83.8	91.0	73	74.2	2	5	292	0.00	29.967 
13:45	83.6	83.6	90.5	73	74.0	2	5	270	0.00	29.957 
13:50	83.8	83.8	91.0	73	74.2	1	3	315	0.00	29.957 
13:55	84.3	84.3	92.5	74	75.1	0	3	315	0.00	29.957 
14:00	84.7	84.7	92.8	72	74.6	1	3	315	0.00	29.953 
14:05	84.7	84.7	92.4	71	74.2	1	3	315	0.00	29.953 
14:10	84.7	84.7	92.4	71	74.2	0	2	338	0.00	29.953 
14:15	84.5	84.5	91.6	70	73.6	1	3	315	0.00	29.951 
14:20	84.5	84.5	91.6	70	73.6	1	3	315	0.00	29.951 
14:25	84.7	84.7	92.4	71	74.2	1	4	315	0.00	29.951 
14:30	85.3	85.3	94.2	72	75.2	1	4	315	0.00	29.947 
14:35	85.3	85.3	92.6	68	73.5	2	3	315	0.00	29.947 
14:40	85.5	85.5	93.5	69	74.1	1	4	270	0.00	29.947 
14:45	85.9	85.9	94.4	69	74.5	1	3	315	0.00	29.946 
14:50	86.1	86.1	94.4	68	74.3	2	3	315	0.00	29.946 
14:55	85.7	85.7	92.7	66	73.0	1	3	292	0.00	29.946 
15:00	85.5	85.5	93.5	69	74.1	1	2	315	0.00	29.949 
15:05	85.1	85.1	92.6	69	73.8	1	3	315	0.00	29.949 
15:10	84.5	84.5	91.6	70	73.6	1	3	315	0.00	29.949 
15:15	84.3	84.3	92.2	73	74.7	1	5	338	0.00	29.951 
15:20	84.0	84.0	91.8	74	74.8	1	4	270	0.00	29.951 
15:25	83.4	83.4	90.4	74	74.2	0	1	270	0.00	29.951 
15:30	83.0	83.0	89.8	75	74.2	0	1	270	0.00	29.934 
15:35	82.4	82.4	88.4	75	73.7	0	1	270	0.00	29.934 
15:40	82.2	82.2	88.5	77	74.2	0	1	270	0.00	29.934 
15:45	82.0	82.0	88.0	77	74.1	0	1	270	0.00	29.935 
15:50	82.0	82.0	88.3	78	74.4	0	0	---	0.00	29.935 
15:55	82.0	82.0	88.5	79	74.8	0	2	270	0.00	29.935 
16:00	81.6	81.6	87.8	80	74.8	0	3	270	0.00	29.929 
16:05	81.8	81.8	88.8	82	75.7	0	1	270	0.00	29.929 
16:10	82.8	82.8	91.4	82	76.7	0	1	270	0.00	29.929 
16:15	83.4	83.4	91.0	76	75.0	0	3	0	0.00	29.912 
16:20	84.1	84.1	90.4	69	72.8	1	3	0	0.00	29.912 
16:25	84.7	84.7	91.3	68	72.9	1	3	315	0.00	29.912 
16:30	84.9	84.9	92.1	69	73.6	0	3	315	0.00	29.915 
16:35	85.3	85.3	91.2	64	71.7	1	2	315	0.00	29.915 
16:40	85.9	85.9	92.0	63	71.8	1	3	315	0.00	29.915 
16:45	86.1	86.1	92.8	64	72.5	1	3	270	0.00	29.906 
16:50	86.7	86.7	93.3	62	72.1	0	1	270	0.00	29.906 
16:55	87.0	87.0	94.3	63	72.8	1	3	270	0.00	29.906 
17:00	87.2	87.2	94.8	63	73.0	1	3	270	0.00	29.891 
17:05	87.4	87.4	96.6	66	74.6	0	2	270	0.00	29.891 
17:10	87.6	87.6	95.2	62	72.9	0	2	270	0.00	29.891 
17:15	87.6	87.6	95.2	62	72.9	1	3	270	0.00	29.891 
17:20	87.6	87.6	94.7	61	72.5	1	3	270	0.00	29.891 
17:25	87.8	87.8	95.6	62	73.1	0	2	270	0.00	29.891 
17:30	87.8	87.8	95.6	62	73.1	0	2	270	0.00	29.888 
17:35	88.0	88.0	94.3	58	71.3	1	2	270	0.00	29.888 
17:40	88.0	88.0	94.3	58	71.3	1	2	270	0.00	29.888 
17:45	87.8	87.8	94.3	59	71.7	0	1	292	0.00	29.895 
17:50	87.6	87.6	94.3	60	72.0	1	3	292	0.00	29.895 
17:55	87.2	87.2	94.3	62	72.6	0	2	292	0.00	29.895 
18:00	86.5	86.5	92.8	62	71.9	0	2	292	0.00	29.903 
18:05	86.3	86.3	92.8	63	72.2	1	2	292	0.00	29.903 
18:10	85.9	85.9	92.4	64	72.3	0	3	292	0.00	29.903 
18:15	85.7	85.7	91.6	63	71.6	1	2	292	0.00	29.906 
18:20	85.5	85.5	91.6	64	71.9	1	3	292	0.00	29.906 
18:25	85.3	85.3	91.5	65	72.2	0	2	292	0.00	29.906 
18:30	85.3	85.3	91.9	66	72.6	0	2	292	0.00	29.911 
18:35	85.1	85.1	91.5	66	72.4	0	2	292	0.00	29.911 
18:40	84.9	84.9	91.4	67	72.7	0	1	292	0.00	29.911 
18:45	84.7	84.7	91.0	67	72.5	0	1	292	0.00	29.908 
18:50	84.3	84.3	90.5	68	72.6	0	0	---	0.00	29.908 
18:55	84.1	84.1	90.4	69	72.8	0	0	---	0.00	29.908 
19:00	84.1	84.1	90.4	69	72.8	0	0	---	0.00	29.898 
19:05	84.0	84.0	90.5	70	73.1	0	0	---	0.00	29.898 
19:10	84.0	84.0	90.5	70	73.1	0	0	---	0.00	29.898 
19:15	84.1	84.1	90.7	70	73.2	0	0	---	0.00	29.908 
19:20	84.1	84.1	90.7	70	73.2	0	0	---	0.00	29.908 
19:25	84.1	84.1	91.0	71	73.7	0	0	---	0.00	29.908 
19:30	84.0	84.0	90.8	71	73.6	0	0	---	0.00	29.911 
19:35	84.0	84.0	91.1	72	74.0	0	0	---	0.00	29.911 
19:40	83.8	83.8	90.7	72	73.8	0	0	---	0.00	29.911 
19:45	83.8	83.8	91.0	73	74.2	0	0	---	0.00	29.917 
19:50	83.0	83.0	88.1	69	71.8	2	11	270	0.00	29.917 
19:55	76.7	76.7	78.3	74	67.8	7	16	270	0.18	29.917 
20:00	73.3	73.3	73.3	85	68.5	5	11	315	0.28	29.950 
20:05	72.7	72.7	72.7	89	69.3	3	7	90	0.06	29.950 
20:10	72.5	72.5	72.5	91	69.7	2	6	90	0.02	29.950 
20:15	72.5	72.5	72.5	91	69.7	0	2	90	0.01	29.938 
20:20	72.5	72.5	72.5	92	70.0	1	3	90	0.00	29.938 
20:25	72.7	72.7	72.7	93	70.6	3	9	338	0.00	29.938 
20:30	72.0	72.0	72.0	91	69.2	6	13	270	0.01	29.958 
20:35	71.8	71.8	71.8	90	68.7	2	9	292	0.00	29.958 
20:40	71.5	71.5	71.5	90	68.4	2	5	270	0.01	29.958 
20:45	71.3	71.3	71.3	90	68.2	1	4	270	0.00	29.939 
20:50	71.1	71.1	71.1	90	68.0	1	4	315	0.00	29.939 
20:55	71.1	71.1	71.1	91	68.3	1	4	315	0.00	29.939 
21:00	71.1	71.1	71.1	91	68.3	1	4	292	0.00	29.949 
21:05	71.1	71.1	71.1	91	68.3	1	2	292	0.00	29.949 
21:10	70.9	70.9	70.9	91	68.1	0	2	292	0.00	29.949 
21:15	70.9	70.9	70.9	92	68.5	0	2	292	0.01	29.960 
21:20	70.9	70.9	70.9	92	68.5	0	1	292	0.00	29.960 
21:25	70.9	70.9	70.9	92	68.5	0	1	292	0.01	29.960 
21:30	70.9	70.9	70.9	92	68.5	0	0	---	0.00	29.949 
21:35	70.8	70.8	70.8	93	68.7	0	0	---	0.01	29.949 
21:40	70.8	70.8	70.8	93	68.7	0	1	292	0.01	29.949 
21:45	70.6	70.6	70.6	93	68.5	0	0	---	0.00	29.933 
21:50	70.6	70.6	70.6	93	68.5	0	0	---	0.00	29.933 
21:55	70.6	70.6	70.6	93	68.5	0	0	---	0.00	29.933 
22:00	70.6	70.6	70.6	94	68.8	0	0	---	0.00	29.930 
22:05	70.6	70.6	70.6	94	68.8	0	0	---	0.00	29.930 
22:10	70.6	70.6	70.6	94	68.8	0	0	---	0.00	29.930 
22:15	70.4	70.4	70.4	94	68.6	0	0	---	0.00	29.928 
22:20	70.4	70.4	70.4	94	68.6	0	0	---	0.00	29.928 
22:25	70.4	70.4	70.4	94	68.6	0	0	---	0.00	29.928 
22:30	70.4	70.4	70.4	94	68.6	0	0	---	0.00	29.945 
22:35	70.4	70.4	70.4	94	68.6	0	0	---	0.00	29.945 
22:40	70.4	70.4	70.4	94	68.6	0	0	---	0.00	29.945 
22:45	70.3	70.3	70.3	94	68.5	0	0	---	0.00	29.962 
22:50	70.3	70.3	70.3	95	68.8	0	0	---	0.00	29.962 
22:55	70.4	70.4	70.4	95	68.9	0	0	---	0.00	29.962 
23:00	70.4	70.4	70.4	95	68.9	0	0	---	0.00	29.977 
23:05	70.3	70.3	70.3	95	68.8	0	1	292	0.00	29.977 
23:10	70.4	70.4	70.4	95	68.9	0	0	---	0.00	29.977 
23:15	70.4	70.4	70.4	95	68.9	0	1	292	0.00	29.974 
23:20	70.6	70.6	70.6	95	69.1	0	2	292	0.00	29.974 
23:25	70.6	70.6	70.6	95	69.1	0	1	292	0.00	29.974 
23:30	70.6	70.6	70.6	95	69.1	0	1	292	0.00	29.976 
23:35	70.4	70.4	70.4	95	68.9	0	1	292	0.00	29.976 
23:40	70.4	70.4	70.4	95	68.9	0	1	292	0.00	29.976 
23:45	70.4	70.4	70.4	95	68.9	0	2	292	0.00	29.976 
23:50	70.4	70.4	70.4	95	68.9	0	1	292	0.00	29.976 
23:55	70.4	70.4	70.4	95	68.9	0	0	---	0.00	29.976 

CoCoRaHS
IN-AL-39
A2 Web Hosting
Creative Commons License
GoDaddy
search engine by freefind advanced

loaded 2018-11-22 06:43:37 • last modified 2010-11-18 10:43:29
Privacy PolicyDisclaimer
• wx.awcolley.com is powered by PmWiki v.2002016 •
• all content (unless otherwise noted) © 2018 A W Colley